createdAt,value
2016-04-17T00:00:05.380Z,999.11
2016-04-17T00:01:05.398Z,999.11
2016-04-17T00:02:05.323Z,999.11
2016-04-17T00:03:05.310Z,999.12
2016-04-17T00:04:05.297Z,999.16
2016-04-17T00:05:05.285Z,999.14
2016-04-17T00:06:05.256Z,999.18
2016-04-17T00:07:05.243Z,999.19
2016-04-17T00:08:05.214Z,999.26
2016-04-17T00:09:06.155Z,999.29
2016-04-17T00:10:05.188Z,999.32
2016-04-17T00:11:05.160Z,999.34
2016-04-17T00:12:05.148Z,999.38
2016-04-17T00:13:05.118Z,999.37
2016-04-17T00:14:05.105Z,999.38
2016-04-17T00:15:05.092Z,999.42
2016-04-17T00:16:05.064Z,999.42
2016-04-17T00:17:06.254Z,999.41
2016-04-17T00:18:05.038Z,999.44
2016-04-17T00:19:05.009Z,999.42
2016-04-17T00:20:04.996Z,999.38
2016-04-17T00:21:04.968Z,999.42
2016-04-17T00:22:04.955Z,999.39
2016-04-17T00:23:04.942Z,999.43
2016-04-17T00:24:04.914Z,999.47
2016-04-17T00:25:04.900Z,999.44
2016-04-17T00:26:04.888Z,999.41
2016-04-17T00:27:04.858Z,999.47
2016-04-17T00:28:04.846Z,999.49
2016-04-17T00:29:04.832Z,999.48
2016-04-17T00:30:04.804Z,999.5
2016-04-17T00:31:04.791Z,999.52
2016-04-17T00:32:04.779Z,999.49
2016-04-17T00:33:04.749Z,999.43
2016-04-17T00:34:04.721Z,999.39
2016-04-17T00:35:04.709Z,999.39
2016-04-17T00:36:04.696Z,999.38
2016-04-17T00:37:04.683Z,999.43
2016-04-17T00:38:04.654Z,999.43
2016-04-17T00:39:04.641Z,999.41
2016-04-17T00:40:04.612Z,999.39
2016-04-17T00:41:04.600Z,999.4
2016-04-17T00:42:04.587Z,999.46
2016-04-17T00:43:04.574Z,999.53
2016-04-17T00:44:04.545Z,999.59
2016-04-17T00:45:04.517Z,999.61
2016-04-17T00:46:04.503Z,999.64
2016-04-17T00:47:04.491Z,999.67
2016-04-17T00:48:04.462Z,999.68
2016-04-17T00:49:04.450Z,999.67
2016-04-17T00:50:04.421Z,999.69
2016-04-17T00:51:04.423Z,999.65
2016-04-17T00:52:04.395Z,999.7
2016-04-17T00:53:04.383Z,999.63
2016-04-17T00:54:04.370Z,999.61
2016-04-17T00:55:04.341Z,999.59
2016-04-17T00:56:04.312Z,999.68
2016-04-17T00:57:04.299Z,999.72
2016-04-17T00:58:04.286Z,999.69
2016-04-17T00:59:04.257Z,999.71
2016-04-17T01:00:04.245Z,999.73
2016-04-17T01:01:04.216Z,999.76
2016-04-17T01:02:04.203Z,999.71
2016-04-17T01:03:04.190Z,999.75
2016-04-17T01:04:04.162Z,999.75
2016-04-17T01:05:04.149Z,999.77
2016-04-17T01:06:04.136Z,999.75
2016-04-17T01:07:04.107Z,999.75
2016-04-17T01:08:04.094Z,999.8
2016-04-17T01:09:04.065Z,999.77
2016-04-17T01:10:04.053Z,999.75
2016-04-17T01:11:04.040Z,999.77
2016-04-17T01:12:04.027Z,999.77
2016-04-17T01:13:03.999Z,999.8
2016-04-17T01:14:03.985Z,999.8
2016-04-17T01:15:03.956Z,999.72
2016-04-17T01:16:03.944Z,999.69
2016-04-17T01:17:03.915Z,999.68
2016-04-17T01:18:03.903Z,999.65
2016-04-17T01:19:03.890Z,999.63
2016-04-17T01:20:03.861Z,999.66
2016-04-17T01:21:03.848Z,999.64
2016-04-17T01:22:03.835Z,999.62
2016-04-17T01:23:03.822Z,999.68
2016-04-17T01:24:03.794Z,999.7
2016-04-17T01:25:03.765Z,999.69
2016-04-17T01:26:03.752Z,999.71
2016-04-17T01:27:03.739Z,999.73
2016-04-17T01:28:03.710Z,999.69
2016-04-17T01:29:03.697Z,999.74
2016-04-17T01:30:03.685Z,999.78
2016-04-17T01:31:03.672Z,999.75
2016-04-17T01:32:03.643Z,999.75
2016-04-17T01:33:03.630Z,999.7
2016-04-17T01:34:03.601Z,999.67
2016-04-17T01:35:03.589Z,999.65
2016-04-17T01:36:03.560Z,999.66
2016-04-17T01:37:03.547Z,999.6
2016-04-17T01:38:03.534Z,999.6
2016-04-17T01:39:03.506Z,999.62
2016-04-17T01:40:03.492Z,999.66
2016-04-17T01:41:03.480Z,999.66
2016-04-17T01:42:03.451Z,999.71
2016-04-17T01:43:03.438Z,999.76
2016-04-17T01:44:03.409Z,999.77
2016-04-17T01:45:03.412Z,999.81
2016-04-17T01:46:03.384Z,999.88
2016-04-17T01:47:03.371Z,999.9
2016-04-17T01:48:03.342Z,999.92
2016-04-17T01:49:03.329Z,999.98
2016-04-17T01:50:03.300Z,999.99
2016-04-17T01:51:03.288Z,1000.03
2016-04-17T01:52:03.275Z,1000.07
2016-04-17T01:53:03.247Z,1000.09
2016-04-17T01:54:03.234Z,1000.09
2016-04-17T01:55:03.205Z,1000.09
2016-04-17T01:56:03.192Z,1000.14
2016-04-17T01:57:03.179Z,1000.14
2016-04-17T01:58:03.150Z,1000.12
2016-04-17T01:59:03.138Z,1000.16
2016-04-17T02:00:03.125Z,1000.16
2016-04-17T02:01:03.096Z,1000.16
2016-04-17T02:02:03.083Z,1000.15
2016-04-17T02:03:03.054Z,1000.18
2016-04-17T02:04:03.042Z,1000.2
2016-04-17T02:05:03.029Z,1000.21
2016-04-17T02:06:03.000Z,1000.2
2016-04-17T02:07:02.987Z,1000.25
2016-04-17T02:08:02.974Z,1000.23
2016-04-17T02:09:02.946Z,1000.22
2016-04-17T02:10:02.949Z,1000.22
2016-04-17T02:11:02.920Z,1000.24
2016-04-17T02:12:02.891Z,1000.24
2016-04-17T02:13:02.878Z,1000.23
2016-04-17T02:14:02.912Z,1000.3
2016-04-17T02:15:02.836Z,1000.27
2016-04-17T02:16:02.824Z,1000.27
2016-04-17T02:17:02.795Z,1000.25
2016-04-17T02:18:02.782Z,1000.25
2016-04-17T02:19:02.769Z,1000.29
2016-04-17T02:20:02.741Z,1000.26
2016-04-17T02:21:02.728Z,1000.27
2016-04-17T02:22:02.705Z,1000.29
2016-04-17T02:23:02.691Z,1000.31
2016-04-17T02:24:02.678Z,1000.34
2016-04-17T02:25:02.681Z,1000.31
2016-04-17T02:26:02.636Z,1000.28
2016-04-17T02:27:02.608Z,1000.24
2016-04-17T02:28:02.596Z,1000.26
2016-04-17T02:29:02.566Z,1000.26
2016-04-17T02:30:02.554Z,1000.27
2016-04-17T02:31:02.541Z,1000.32
2016-04-17T02:32:02.513Z,1000.23
2016-04-17T02:33:02.500Z,1000.21
2016-04-17T02:34:02.471Z,1000.21
2016-04-17T02:35:02.458Z,1000.23
2016-04-17T02:36:02.445Z,1000.18
2016-04-17T02:37:02.416Z,1000.16
2016-04-17T02:38:02.404Z,1000.14
2016-04-17T02:39:02.391Z,1000.19
2016-04-17T02:40:02.487Z,1000.14
2016-04-17T02:41:02.349Z,1000.16
2016-04-17T02:42:02.336Z,1000.15
2016-04-17T02:43:02.307Z,1000.1
2016-04-17T02:44:02.295Z,1000.09
2016-04-17T02:45:02.282Z,1000.11
2016-04-17T02:46:02.253Z,1000.06
2016-04-17T02:47:02.240Z,1000.06
2016-04-17T02:48:02.383Z,1000.08
2016-04-17T02:49:02.199Z,1000.07
2016-04-17T02:50:02.186Z,1000.09
2016-04-17T02:51:02.158Z,1000.05
2016-04-17T02:52:02.144Z,1000.07
2016-04-17T02:53:02.131Z,1000.09
2016-04-17T02:54:02.102Z,1000.07
2016-04-17T02:55:02.090Z,1000.11
2016-04-17T02:56:02.374Z,1000.09
2016-04-17T02:57:02.049Z,1000.08
2016-04-17T02:58:02.035Z,1000.09
2016-04-17T02:59:02.007Z,1000.08
2016-04-17T03:00:01.994Z,1000.06
2016-04-17T03:01:01.980Z,1000.08
2016-04-17T03:02:01.952Z,1000.08
2016-04-17T03:03:01.940Z,1000.14
2016-04-17T03:04:02.380Z,1000.11
2016-04-17T03:05:01.898Z,1000.1
2016-04-17T03:06:01.885Z,1000.1
2016-04-17T03:07:01.857Z,1000.1
2016-04-17T03:08:01.843Z,1000.15
2016-04-17T03:09:01.831Z,1000.12
2016-04-17T03:10:01.834Z,1000.08
2016-04-17T03:11:01.789Z,1000.08
2016-04-17T03:12:02.464Z,1000.05
2016-04-17T03:13:01.748Z,1000.04
2016-04-17T03:14:01.735Z,1000.03
2016-04-17T03:15:01.706Z,1000.05
2016-04-17T03:16:01.693Z,1000.01
2016-04-17T03:17:01.664Z,1000.04
2016-04-17T03:18:01.667Z,1000.02
2016-04-17T03:19:01.639Z,1000.02
2016-04-17T03:20:01.610Z,1000.03
2016-04-17T03:21:01.597Z,1000.03
2016-04-17T03:22:01.569Z,1000.04
2016-04-17T03:23:01.556Z,1000.04
2016-04-17T03:24:01.543Z,1000.05
2016-04-17T03:25:01.514Z,1000.1
2016-04-17T03:26:01.502Z,1000.04
2016-04-17T03:27:01.488Z,1000.09
2016-04-17T03:28:01.616Z,1000.07
2016-04-17T03:29:01.446Z,1000.11
2016-04-17T03:30:01.434Z,1000.11
2016-04-17T03:31:01.421Z,1000.12
2016-04-17T03:32:01.393Z,1000.06
2016-04-17T03:33:01.379Z,1000.07
2016-04-17T03:34:01.351Z,1000.07
2016-04-17T03:35:01.337Z,1000.14
2016-04-17T03:36:01.607Z,1000.21
2016-04-17T03:37:01.296Z,1000.17
2016-04-17T03:38:01.284Z,1000.23
2016-04-17T03:39:01.254Z,1000.27
2016-04-17T03:40:01.273Z,1000.26
2016-04-17T03:41:01.213Z,1000.26
2016-04-17T03:42:01.201Z,1000.27
2016-04-17T03:43:01.187Z,1000.28
2016-04-17T03:44:01.159Z,1000.25
2016-04-17T03:45:01.146Z,1000.33
2016-04-17T03:46:01.117Z,1000.28
2016-04-17T03:47:01.104Z,1000.3
2016-04-17T03:48:01.107Z,1000.32
2016-04-17T03:49:01.079Z,1000.37
2016-04-17T03:50:01.051Z,1000.37
2016-04-17T03:51:01.037Z,1000.34
2016-04-17T03:52:01.008Z,1000.37
2016-04-17T03:53:00.996Z,1000.38
2016-04-17T03:54:00.967Z,1000.4
2016-04-17T03:55:00.955Z,1000.39
2016-04-17T03:56:00.941Z,1000.38
2016-04-17T03:57:00.928Z,1000.4
2016-04-17T03:58:00.916Z,1000.37
2016-04-17T03:59:00.871Z,1000.35
2016-04-17T04:00:00.858Z,1000.35
2016-04-17T04:01:00.846Z,1000.43
2016-04-17T04:02:00.817Z,1000.39
2016-04-17T04:03:00.804Z,1000.41
2016-04-17T04:04:00.791Z,1000.4
2016-04-17T04:05:00.763Z,1000.41
2016-04-17T04:06:00.750Z,1000.39
2016-04-17T04:07:00.737Z,1000.38
2016-04-17T04:08:00.708Z,1000.36
2016-04-17T04:09:00.695Z,1000.41
2016-04-17T04:10:00.682Z,1000.35
2016-04-17T04:11:00.653Z,1000.39
2016-04-17T04:12:00.641Z,1000.39
2016-04-17T04:13:00.612Z,1000.38
2016-04-17T04:14:00.599Z,1000.4
2016-04-17T04:15:00.586Z,1000.4
2016-04-17T04:16:00.558Z,1000.38
2016-04-17T04:17:00.545Z,1000.43
2016-04-17T04:18:00.517Z,1000.43
2016-04-17T04:19:00.503Z,1000.46
2016-04-17T04:20:00.475Z,1000.51
2016-04-17T04:21:00.461Z,1000.53
2016-04-17T04:22:00.448Z,1000.52
2016-04-17T04:23:00.420Z,1000.58
2016-04-17T04:24:00.408Z,1000.55
2016-04-17T04:25:00.378Z,1000.59
2016-04-17T04:26:00.366Z,1000.57
2016-04-17T04:27:00.352Z,1000.57
2016-04-17T04:28:00.324Z,1000.6
2016-04-17T04:29:00.311Z,1000.61
2016-04-17T04:30:00.299Z,1000.62
2016-04-17T04:31:00.270Z,1000.6
2016-04-17T04:32:00.257Z,1000.63
2016-04-17T04:33:00.244Z,1000.66
2016-04-17T04:34:00.216Z,1000.62
2016-04-17T04:35:00.203Z,1000.68
2016-04-17T04:36:00.174Z,1000.62
2016-04-17T04:37:00.161Z,1000.75
2016-04-17T04:38:00.148Z,1000.71
2016-04-17T04:39:00.135Z,1000.75
2016-04-17T04:40:00.107Z,1000.74
2016-04-17T04:41:00.078Z,1000.76
2016-04-17T04:42:00.065Z,1000.69
2016-04-17T04:43:00.052Z,1000.72
2016-04-17T04:44:00.023Z,1000.74
2016-04-17T04:45:00.010Z,1000.77
2016-04-17T04:45:59.997Z,1000.76
2016-04-17T04:46:59.970Z,1000.78
2016-04-17T04:47:59.956Z,1000.77
2016-04-17T04:48:59.943Z,1000.81
2016-04-17T04:49:59.914Z,1000.8
2016-04-17T04:50:59.917Z,1000.84
2016-04-17T04:51:59.873Z,1000.9
2016-04-17T04:52:59.861Z,1000.95
2016-04-17T04:53:59.831Z,1000.91
2016-04-17T04:54:59.819Z,1000.94
2016-04-17T04:55:59.805Z,1000.98
2016-04-17T04:56:59.792Z,1001
2016-04-17T04:57:59.764Z,1001
2016-04-17T04:58:59.751Z,1000.99
2016-04-17T04:59:59.723Z,1001.01
2016-04-17T05:00:59.710Z,1000.98
2016-04-17T05:01:59.681Z,1000.99
2016-04-17T05:02:59.668Z,1001.03
2016-04-17T05:03:59.655Z,1001.04
2016-04-17T05:04:59.627Z,1001.05
2016-04-17T05:05:59.614Z,1001.05
2016-04-17T05:06:59.585Z,1001.04
2016-04-17T05:07:59.572Z,1001.11
2016-04-17T05:08:59.559Z,1001.11
2016-04-17T05:09:59.547Z,1001.07
2016-04-17T05:10:59.518Z,1001.09
2016-04-17T05:11:59.490Z,1001.12
2016-04-17T05:12:59.476Z,1001.16
2016-04-17T05:13:59.463Z,1001.13
2016-04-17T05:14:59.434Z,1001.17
2016-04-17T05:15:59.423Z,1001.19
2016-04-17T05:16:59.409Z,1001.21
2016-04-17T05:17:59.381Z,1001.2
2016-04-17T05:18:59.367Z,1001.25
2016-04-17T05:19:59.354Z,1001.28
2016-04-17T05:20:59.325Z,1001.3
2016-04-17T05:21:59.314Z,1001.3
2016-04-17T05:22:59.284Z,1001.29
2016-04-17T05:23:59.272Z,1001.34
2016-04-17T05:24:59.258Z,1001.37
2016-04-17T05:25:59.230Z,1001.3
2016-04-17T05:26:59.217Z,1001.32
2016-04-17T05:27:59.205Z,1001.35
2016-04-17T05:28:59.175Z,1001.34
2016-04-17T05:29:59.163Z,1001.36
2016-04-17T05:30:59.134Z,1001.38
2016-04-17T05:31:59.121Z,1001.48
2016-04-17T05:32:59.108Z,1001.42
2016-04-17T05:33:59.080Z,1001.4
2016-04-17T05:34:59.067Z,1001.5
2016-04-17T05:35:59.054Z,1001.47
2016-04-17T05:36:59.041Z,1001.45
2016-04-17T05:37:59.012Z,1001.55
2016-04-17T05:38:58.984Z,1001.5
2016-04-17T05:39:58.971Z,1001.54
2016-04-17T05:40:58.958Z,1001.59
2016-04-17T05:41:58.929Z,1001.6
2016-04-17T05:42:58.916Z,1001.65
2016-04-17T05:43:58.888Z,1001.62
2016-04-17T05:44:58.876Z,1001.65
2016-04-17T05:45:58.862Z,1001.67
2016-04-17T05:46:58.849Z,1001.74
2016-04-17T05:47:58.821Z,1001.75
2016-04-17T05:48:58.807Z,1001.74
2016-04-17T05:49:58.779Z,1001.78
2016-04-17T05:50:58.767Z,1001.8
2016-04-17T05:51:58.738Z,1001.86
2016-04-17T05:52:58.725Z,1001.85
2016-04-17T05:53:58.712Z,1001.89
2016-04-17T05:54:58.683Z,1001.89
2016-04-17T05:55:58.670Z,1001.9
2016-04-17T05:56:58.657Z,1001.93
2016-04-17T05:57:58.645Z,1001.9
2016-04-17T05:58:58.616Z,1001.93
2016-04-17T05:59:58.603Z,1001.94
2016-04-17T06:00:58.574Z,1001.93
2016-04-17T06:01:58.562Z,1001.97
2016-04-17T06:02:58.570Z,1001.97
2016-04-17T06:03:58.596Z,1001.95
2016-04-17T06:04:58.608Z,1001.98
2016-04-17T06:05:58.635Z,1001.99
2016-04-17T06:06:58.709Z,1002.02
2016-04-17T06:07:58.650Z,1002
2016-04-17T06:08:58.651Z,1002.02
2016-04-17T06:09:58.652Z,1002.01
2016-04-17T06:10:58.638Z,1002.04
2016-04-17T06:11:58.639Z,1002.04
2016-04-17T06:12:58.632Z,1002.03
2016-04-17T06:13:58.625Z,1002.06
2016-04-17T06:14:58.852Z,1002.06
2016-04-17T06:15:58.594Z,1002.05
2016-04-17T06:16:58.571Z,1002.15
2016-04-17T06:17:58.559Z,1002.11
2016-04-17T06:18:58.533Z,1002.14
2016-04-17T06:19:58.522Z,1002.14
2016-04-17T06:20:58.496Z,1002.16
2016-04-17T06:21:58.485Z,1002.14
2016-04-17T06:22:58.816Z,1002.19
2016-04-17T06:23:58.445Z,1002.18
2016-04-17T06:24:58.432Z,1002.15
2016-04-17T06:25:58.421Z,1002.2
2016-04-17T06:26:58.393Z,1002.19
2016-04-17T06:27:58.380Z,1002.21
2016-04-17T06:28:58.351Z,1002.22
2016-04-17T06:29:58.338Z,1002.26
2016-04-17T06:30:58.872Z,1002.22
2016-04-17T06:31:58.297Z,1002.24
2016-04-17T06:32:58.283Z,1002.26
2016-04-17T06:33:58.255Z,1002.23
2016-04-17T06:34:58.242Z,1002.26
2016-04-17T06:35:58.229Z,1002.26
2016-04-17T06:36:58.201Z,1002.3
2016-04-17T06:37:58.188Z,1002.32
2016-04-17T06:38:58.971Z,1002.32
2016-04-17T06:39:58.147Z,1002.32
2016-04-17T06:40:58.133Z,1002.33
2016-04-17T06:41:58.120Z,1002.36
2016-04-17T06:42:58.093Z,1002.39
2016-04-17T06:43:58.079Z,1002.41
2016-04-17T06:44:58.051Z,1002.41
2016-04-17T06:45:58.038Z,1002.43
2016-04-17T06:46:58.165Z,1002.43
2016-04-17T06:47:57.996Z,1002.46
2016-04-17T06:48:57.984Z,1002.43
2016-04-17T06:49:57.954Z,1002.47
2016-04-17T06:50:57.942Z,1002.51
2016-04-17T06:51:57.929Z,1002.53
2016-04-17T06:52:57.900Z,1002.56
2016-04-17T06:53:57.887Z,1002.57
2016-04-17T06:54:58.170Z,1002.58
2016-04-17T06:55:57.845Z,1002.6
2016-04-17T06:56:57.818Z,1002.59
2016-04-17T06:57:57.803Z,1002.62
2016-04-17T06:58:57.792Z,1002.57
2016-04-17T06:59:57.778Z,1002.61
2016-04-17T07:00:57.750Z,1002.61
2016-04-17T07:01:57.737Z,1002.59
2016-04-17T07:02:58.911Z,1002.65
2016-04-17T07:03:57.695Z,1002.64
2016-04-17T07:04:57.683Z,1002.61
2016-04-17T07:05:57.654Z,1002.66
2016-04-17T07:06:57.641Z,1002.65
2016-04-17T07:07:57.613Z,1002.63
2016-04-17T07:08:57.615Z,1002.64
2016-04-17T07:09:57.586Z,1002.67
2016-04-17T07:10:57.620Z,1002.67
2016-04-17T07:11:57.546Z,1002.69
2016-04-17T07:12:57.516Z,1002.65
2016-04-17T07:13:57.503Z,1002.63
2016-04-17T07:14:57.490Z,1002.68
2016-04-17T07:15:57.477Z,1002.67
2016-04-17T07:16:57.448Z,1002.67
2016-04-17T07:17:57.437Z,1002.7
2016-04-17T07:18:57.407Z,1002.67
2016-04-17T07:19:57.395Z,1002.72
2016-04-17T07:20:57.365Z,1002.72
2016-04-17T07:21:57.354Z,1002.74
2016-04-17T07:22:57.340Z,1002.78
2016-04-17T07:23:57.312Z,1002.79
2016-04-17T07:24:57.298Z,1002.82
2016-04-17T07:25:57.286Z,1002.84
2016-04-17T07:26:57.257Z,1002.89
2016-04-17T07:27:57.245Z,1002.92
2016-04-17T07:28:57.216Z,1002.9
2016-04-17T07:29:57.203Z,1002.89
2016-04-17T07:30:57.189Z,1002.9
2016-04-17T07:31:57.161Z,1002.89
2016-04-17T07:32:57.148Z,1002.9
2016-04-17T07:33:57.120Z,1002.94
2016-04-17T07:34:57.107Z,1002.95
2016-04-17T07:35:57.094Z,1002.97
2016-04-17T07:36:57.081Z,1002.97
2016-04-17T07:37:57.053Z,1002.96
2016-04-17T07:38:57.039Z,1002.99
2016-04-17T07:39:57.011Z,1003.02
2016-04-17T07:40:57.029Z,1002.95
2016-04-17T07:41:56.985Z,1002.99
2016-04-17T07:42:56.957Z,1002.99
2016-04-17T07:43:56.944Z,1003.02
2016-04-17T07:44:56.915Z,1003
2016-04-17T07:45:56.902Z,1003.01
2016-04-17T07:46:56.873Z,1003.04
2016-04-17T07:47:56.860Z,1003.05
2016-04-17T07:48:56.848Z,1003.04
2016-04-17T07:49:56.818Z,1003.06
2016-04-17T07:50:56.806Z,1003.14
2016-04-17T07:51:56.793Z,1003.06
2016-04-17T07:52:56.765Z,1003.11
2016-04-17T07:53:56.768Z,1003.16
2016-04-17T07:54:56.739Z,1003.14
2016-04-17T07:55:56.726Z,1003.16
2016-04-17T07:56:56.697Z,1003.21
2016-04-17T07:57:56.684Z,1003.2
2016-04-17T07:58:56.655Z,1003.24
2016-04-17T07:59:56.628Z,1003.21
2016-04-17T08:00:56.614Z,1003.26
2016-04-17T08:01:56.601Z,1003.27
2016-04-17T08:02:56.572Z,1003.25
2016-04-17T08:03:56.560Z,1003.26
2016-04-17T08:04:56.547Z,1003.31
2016-04-17T08:05:56.518Z,1003.3
2016-04-17T08:06:56.505Z,1003.28
2016-04-17T08:07:56.508Z,1003.3
2016-04-17T08:08:56.464Z,1003.31
2016-04-17T08:09:56.452Z,1003.3
2016-04-17T08:10:56.438Z,1003.36
2016-04-17T08:11:56.409Z,1003.41
2016-04-17T08:12:56.380Z,1003.38
2016-04-17T08:13:56.383Z,1003.4
2016-04-17T08:14:56.355Z,1003.45
2016-04-17T08:15:56.343Z,1003.53
2016-04-17T08:16:56.313Z,1003.51
2016-04-17T08:17:56.284Z,1003.55
2016-04-17T08:18:56.271Z,1003.53
2016-04-17T08:19:56.243Z,1003.58
2016-04-17T08:20:56.230Z,1003.61
2016-04-17T08:21:56.214Z,1003.56
2016-04-17T08:22:56.202Z,1003.59
2016-04-17T08:23:56.173Z,1003.57
2016-04-17T08:24:56.160Z,1003.59
2016-04-17T08:25:56.147Z,1003.64
2016-04-17T08:26:56.119Z,1003.7
2016-04-17T08:27:56.106Z,1003.69
2016-04-17T08:28:56.078Z,1003.69
2016-04-17T08:29:56.065Z,1003.65
2016-04-17T08:30:56.036Z,1003.7
2016-04-17T08:31:56.023Z,1003.73
2016-04-17T08:32:56.010Z,1003.7
2016-04-17T08:33:55.981Z,1003.73
2016-04-17T08:34:55.969Z,1003.76
2016-04-17T08:35:55.955Z,1003.75
2016-04-17T08:36:55.927Z,1003.75
2016-04-17T08:37:55.914Z,1003.75
2016-04-17T08:38:55.901Z,1003.72
2016-04-17T08:39:55.872Z,1003.77
2016-04-17T08:40:55.860Z,1003.82
2016-04-17T08:41:55.831Z,1003.83
2016-04-17T08:42:55.819Z,1003.85
2016-04-17T08:43:55.791Z,1003.9
2016-04-17T08:44:55.777Z,1003.82
2016-04-17T08:45:55.763Z,1003.81
2016-04-17T08:46:55.735Z,1003.85
2016-04-17T08:47:55.722Z,1003.83
2016-04-17T08:48:55.694Z,1003.88
2016-04-17T08:49:55.681Z,1003.87
2016-04-17T08:50:55.668Z,1003.88
2016-04-17T08:51:55.640Z,1003.87
2016-04-17T08:52:55.627Z,1003.86
2016-04-17T08:53:55.598Z,1003.89
2016-04-17T08:54:55.584Z,1003.94
2016-04-17T08:55:55.587Z,1003.96
2016-04-17T08:56:55.543Z,1003.99
2016-04-17T08:57:55.531Z,1004.03
2016-04-17T08:58:55.502Z,1003.99
2016-04-17T08:59:55.489Z,1004.04
2016-04-17T09:00:55.476Z,1004.07
2016-04-17T09:01:55.448Z,1004.12
2016-04-17T09:02:55.434Z,1004.13
2016-04-17T09:03:55.422Z,1004.12
2016-04-17T09:04:55.392Z,1004.16
2016-04-17T09:05:55.380Z,1004.17
2016-04-17T09:06:55.352Z,1004.22
2016-04-17T09:07:55.339Z,1004.23
2016-04-17T09:08:55.325Z,1004.23
2016-04-17T09:09:55.297Z,1004.25
2016-04-17T09:10:55.283Z,1004.29
2016-04-17T09:11:55.256Z,1004.28
2016-04-17T09:12:55.243Z,1004.35
2016-04-17T09:13:55.230Z,1004.36
2016-04-17T09:14:55.201Z,1004.34
2016-04-17T09:15:55.189Z,1004.38
2016-04-17T09:16:55.160Z,1004.31
2016-04-17T09:17:55.147Z,1004.36
2016-04-17T09:18:55.118Z,1004.38
2016-04-17T09:19:55.105Z,1004.4
2016-04-17T09:20:55.093Z,1004.42
2016-04-17T09:21:55.063Z,1004.45
2016-04-17T09:22:55.051Z,1004.45
2016-04-17T09:23:55.037Z,1004.46
2016-04-17T09:24:55.010Z,1004.5
2016-04-17T09:25:55.137Z,1004.48
2016-04-17T09:26:54.984Z,1004.53
2016-04-17T09:27:54.955Z,1004.52
2016-04-17T09:28:54.943Z,1004.57
2016-04-17T09:29:54.914Z,1004.56
2016-04-17T09:30:54.901Z,1004.59
2016-04-17T09:31:54.887Z,1004.58
2016-04-17T09:32:54.859Z,1004.62
2016-04-17T09:33:55.034Z,1004.63
2016-04-17T09:34:54.818Z,1004.61
2016-04-17T09:35:54.805Z,1004.65
2016-04-17T09:36:54.776Z,1004.63
2016-04-17T09:37:54.764Z,1004.71
2016-04-17T09:38:54.751Z,1004.72
2016-04-17T09:39:54.722Z,1004.72
2016-04-17T09:40:54.709Z,1004.72
2016-04-17T09:41:55.087Z,1004.74
2016-04-17T09:42:54.667Z,1004.78
2016-04-17T09:43:54.654Z,1004.76
2016-04-17T09:44:54.625Z,1004.79
2016-04-17T09:45:54.613Z,1004.82
2016-04-17T09:46:54.585Z,1004.82
2016-04-17T09:47:54.571Z,1004.84
2016-04-17T09:48:54.559Z,1004.87
2016-04-17T09:49:55.077Z,1004.82
2016-04-17T09:50:54.517Z,1004.85
2016-04-17T09:51:54.505Z,1004.84
2016-04-17T09:52:54.476Z,1004.81
2016-04-17T09:53:54.463Z,1004.83
2016-04-17T09:54:54.450Z,1004.84
2016-04-17T09:55:54.421Z,1004.85
2016-04-17T09:56:54.408Z,1004.78
2016-04-17T09:57:55.083Z,1004.8
2016-04-17T09:58:54.367Z,1004.84
2016-04-17T09:59:54.337Z,1004.79
2016-04-17T10:00:54.325Z,1004.82
2016-04-17T10:01:54.312Z,1004.85
2016-04-17T10:02:54.284Z,1004.84
2016-04-17T10:03:54.271Z,1004.89
2016-04-17T10:04:54.243Z,1004.91
2016-04-17T10:05:54.323Z,1004.89
2016-04-17T10:06:54.217Z,1004.89
2016-04-17T10:07:54.188Z,1004.9
2016-04-17T10:08:54.175Z,1004.87
2016-04-17T10:09:54.177Z,1004.91
2016-04-17T10:10:54.134Z,1004.85
2016-04-17T10:11:54.120Z,1004.78
2016-04-17T10:12:54.108Z,1004.89
2016-04-17T10:13:55.125Z,1004.92
2016-04-17T10:14:54.050Z,1004.94
2016-04-17T10:15:54.037Z,1004.95
2016-04-17T10:16:54.025Z,1004.93
2016-04-17T10:17:54.011Z,1004.97
2016-04-17T10:18:53.983Z,1004.94
2016-04-17T10:19:53.955Z,1004.95
2016-04-17T10:20:53.941Z,1004.97
2016-04-17T10:21:54.491Z,1004.94
2016-04-17T10:22:53.899Z,1004.98
2016-04-17T10:23:53.887Z,1004.96
2016-04-17T10:24:53.858Z,1005.02
2016-04-17T10:25:53.845Z,1004.96
2016-04-17T10:26:53.832Z,1005.02
2016-04-17T10:27:53.804Z,1005.04
2016-04-17T10:28:53.791Z,1005.04
2016-04-17T10:29:53.763Z,1005.07
2016-04-17T10:30:53.749Z,1005.08
2016-04-17T10:31:53.737Z,1005.08
2016-04-17T10:32:53.708Z,1005.07
2016-04-17T10:33:53.695Z,1005.06
2016-04-17T10:34:53.682Z,1005.09
2016-04-17T10:35:53.653Z,1005.08
2016-04-17T10:36:53.640Z,1005.03
2016-04-17T10:37:53.612Z,1005.07
2016-04-17T10:38:53.600Z,1005.06
2016-04-17T10:39:53.587Z,1005.1
2016-04-17T10:40:53.558Z,1005.07
2016-04-17T10:41:53.545Z,1005.09
2016-04-17T10:42:53.516Z,1005.12
2016-04-17T10:43:53.503Z,1005.11
2016-04-17T10:44:53.491Z,1005.15
2016-04-17T10:45:53.461Z,1005.12
2016-04-17T10:46:53.450Z,1005.11
2016-04-17T10:47:53.419Z,1005.13
2016-04-17T10:48:53.408Z,1005.16
2016-04-17T10:49:53.395Z,1005.18
2016-04-17T10:50:53.366Z,1005.18
2016-04-17T10:51:53.369Z,1005.16
2016-04-17T10:52:53.325Z,1005.23
2016-04-17T10:53:53.311Z,1005.2
2016-04-17T10:54:53.299Z,1005.23
2016-04-17T10:55:53.285Z,1005.21
2016-04-17T10:56:53.257Z,1005.23
2016-04-17T10:57:53.243Z,1005.22
2016-04-17T10:58:53.231Z,1005.2
2016-04-17T10:59:53.203Z,1005.18
2016-04-17T11:00:53.190Z,1005.21
2016-04-17T11:01:53.162Z,1005.13
2016-04-17T11:02:53.148Z,1005.2
2016-04-17T11:03:53.135Z,1005.24
2016-04-17T11:04:53.107Z,1005.16
2016-04-17T11:05:53.093Z,1005.17
2016-04-17T11:06:53.081Z,1005.13
2016-04-17T11:07:53.067Z,1005.2
2016-04-17T11:08:53.055Z,1005.21
2016-04-17T11:09:53.026Z,1005.2
2016-04-17T11:10:53.013Z,1005.24
2016-04-17T11:11:53.000Z,1005.25
2016-04-17T11:12:52.972Z,1005.23
2016-04-17T11:13:52.959Z,1005.29
2016-04-17T11:14:52.947Z,1005.33
2016-04-17T11:15:52.933Z,1005.34
2016-04-17T11:16:52.905Z,1005.33
2016-04-17T11:17:52.892Z,1005.33
2016-04-17T11:18:52.878Z,1005.32
2016-04-17T11:19:52.866Z,1005.33
2016-04-17T11:20:52.838Z,1005.3
2016-04-17T11:21:52.841Z,1005.36
2016-04-17T11:22:52.811Z,1005.38
2016-04-17T11:23:52.798Z,1005.37
2016-04-17T11:24:52.785Z,1005.42
2016-04-17T11:25:52.772Z,1005.44
2016-04-17T11:26:52.760Z,1005.43
2016-04-17T11:27:52.731Z,1005.44
2016-04-17T11:28:52.718Z,1005.49
2016-04-17T11:29:52.705Z,1005.44
2016-04-17T11:30:52.692Z,1005.49
2016-04-17T11:31:52.663Z,1005.54
2016-04-17T11:32:52.651Z,1005.56
2016-04-17T11:33:52.637Z,1005.53
2016-04-17T11:34:52.626Z,1005.56
2016-04-17T11:35:52.612Z,1005.49
2016-04-17T11:36:52.598Z,1005.55
2016-04-17T11:37:52.570Z,1005.54
2016-04-17T11:38:52.573Z,1005.59
2016-04-17T11:39:52.545Z,1005.63
2016-04-17T11:40:52.531Z,1005.56
2016-04-17T11:41:52.519Z,1005.57
2016-04-17T11:42:52.506Z,1005.59
2016-04-17T11:43:52.478Z,1005.58
2016-04-17T11:44:52.465Z,1005.58
2016-04-17T11:45:52.451Z,1005.59
2016-04-17T11:46:52.439Z,1005.55
2016-04-17T11:47:52.426Z,1005.52
2016-04-17T11:48:52.413Z,1005.5
2016-04-17T11:49:52.400Z,1005.51
2016-04-17T11:50:52.371Z,1005.53
2016-04-17T11:51:52.374Z,1005.47
2016-04-17T11:52:52.344Z,1005.48
2016-04-17T11:53:52.332Z,1005.52
2016-04-17T11:54:52.319Z,1005.5
2016-04-17T11:55:52.291Z,1005.49
2016-04-17T11:56:52.277Z,1005.5
2016-04-17T11:57:52.265Z,1005.5
2016-04-17T11:58:52.252Z,1005.54
2016-04-17T11:59:52.239Z,1005.6
2016-04-17T12:00:52.211Z,1005.58
2016-04-17T12:01:52.198Z,1005.58
2016-04-17T12:02:52.185Z,1005.6
2016-04-17T12:03:52.172Z,1005.54
2016-04-17T12:04:52.159Z,1005.58
2016-04-17T12:05:52.146Z,1005.6
2016-04-17T12:06:52.133Z,1005.63
2016-04-17T12:07:52.104Z,1005.68
2016-04-17T12:08:52.092Z,1005.71
2016-04-17T12:09:52.078Z,1005.69
2016-04-17T12:10:52.065Z,1005.65